createdAt,value
2018-12-04T00:01:54.955Z,100713.50
2018-12-04T00:04:23.750Z,100708.81
2018-12-04T00:06:52.544Z,100728.58
2018-12-04T00:09:21.351Z,100723.65
2018-12-04T00:11:50.138Z,100727.52
2018-12-04T00:14:18.960Z,100734.57
2018-12-04T00:16:47.739Z,100736.77
2018-12-04T00:19:16.551Z,100737.75
2018-12-04T00:21:45.351Z,100745.41
2018-12-04T00:24:14.214Z,100759.50
2018-12-04T00:26:43.051Z,100770.92
2018-12-04T00:29:11.835Z,100786.22
2018-12-04T00:31:40.676Z,100786.22
2018-12-04T00:34:09.467Z,100785.13
2018-12-04T00:36:38.251Z,100790.18
2018-12-04T00:39:07.592Z,100803.67
2018-12-04T00:41:36.606Z,100805.15
2018-12-04T00:44:05.423Z,100810.63
2018-12-04T00:46:34.253Z,100820.17
2018-12-04T00:49:04.487Z,100822.75
2018-12-04T00:51:33.267Z,100821.46
2018-12-04T00:54:02.063Z,100832.27
2018-12-04T00:56:31.515Z,100841.61
2018-12-04T00:59:00.305Z,100848.25
2018-12-04T01:01:29.111Z,100854.20
2018-12-04T01:03:57.892Z,100857.17
2018-12-04T01:06:26.701Z,100854.68
2018-12-04T01:08:55.494Z,100860.63
2018-12-04T01:11:24.287Z,100860.15
2018-12-04T01:13:53.223Z,100865.70
2018-12-04T01:16:22.018Z,100876.21
2018-12-04T01:18:50.819Z,100882.72
2018-12-04T01:21:20.995Z,100887.28
2018-12-04T01:23:51.592Z,100894.13
2018-12-04T01:26:20.409Z,100897.87
2018-12-04T01:28:49.501Z,100910.19
2018-12-04T01:31:25.108Z,100909.45
2018-12-04T01:33:53.904Z,100921.93
2018-12-04T01:36:22.722Z,100917.77
2018-12-04T01:38:51.514Z,100921.85
2018-12-04T01:41:20.324Z,100919.91
2018-12-04T01:43:49.115Z,100933.14
2018-12-04T01:46:17.891Z,100937.34
2018-12-04T01:48:46.690Z,100942.32
2018-12-04T01:51:15.491Z,100959.92
2018-12-04T01:53:44.264Z,100975.43
2018-12-04T01:56:13.069Z,100976.27
2018-12-04T01:58:42.983Z,100989.22
2018-12-04T02:01:11.780Z,100992.34
2018-12-04T02:03:40.580Z,100996.52
2018-12-04T02:06:11.595Z,101001.84
2018-12-04T02:08:41.700Z,101004.56
2018-12-04T02:11:10.499Z,101009.36
2018-12-04T02:13:39.301Z,101008.74
2018-12-04T02:16:08.104Z,101004.89
2018-12-04T02:18:36.892Z,101015.26
2018-12-04T02:21:05.887Z,101014.61
2018-12-04T02:23:34.698Z,101030.48
2018-12-04T02:26:03.509Z,101037.08
2018-12-04T02:28:37.700Z,101026.63
2018-12-04T02:31:06.536Z,101034.13
2018-12-04T02:33:35.339Z,101040.33
2018-12-04T02:36:04.173Z,101037.91
2018-12-04T02:38:32.967Z,101043.20
2018-12-04T02:41:01.784Z,101054.56
2018-12-04T02:43:30.599Z,101062.77
2018-12-04T02:45:59.383Z,101079.12
2018-12-04T02:48:28.287Z,101086.99
2018-12-04T02:50:57.051Z,101088.00
2018-12-04T02:53:25.848Z,101089.42
2018-12-04T02:55:54.673Z,101089.91
2018-12-04T02:58:23.468Z,101089.05
2018-12-04T03:00:53.009Z,101104.98
2018-12-04T03:03:21.796Z,101112.72
2018-12-04T03:05:50.587Z,101110.80
2018-12-04T03:08:19.398Z,101115.52
2018-12-04T03:10:49.854Z,101113.19
2018-12-04T03:13:18.649Z,101111.23
2018-12-04T03:15:50.787Z,101113.42
2018-12-04T03:18:19.612Z,101117.67
2018-12-04T03:20:48.429Z,101113.04
2018-12-04T03:23:20.904Z,101121.16
2018-12-04T03:25:49.701Z,101133.03
2018-12-04T03:28:18.516Z,101133.94
2018-12-04T03:30:47.328Z,101140.80
2018-12-04T03:33:25.274Z,101144.43
2018-12-04T03:35:54.107Z,101150.25
2018-12-04T03:38:22.928Z,101150.04
2018-12-04T03:40:51.727Z,101159.81
2018-12-04T03:43:20.586Z,101169.63
2018-12-04T03:45:51.056Z,101173.48
2018-12-04T03:48:20.061Z,101168.73
2018-12-04T03:50:48.851Z,101173.88
2018-12-04T03:53:17.812Z,101182.91
2018-12-04T03:55:46.640Z,101186.77
2018-12-04T03:58:15.456Z,101183.45
2018-12-04T04:00:44.295Z,101186.39
2018-12-04T04:03:13.088Z,101197.58
2018-12-04T04:05:41.943Z,101207.50
2018-12-04T04:08:10.762Z,101217.92
2018-12-04T04:10:39.561Z,101228.58
2018-12-04T04:13:08.358Z,101223.70
2018-12-04T04:15:37.197Z,101232.44
2018-12-04T04:18:06.008Z,101234.61
2018-12-04T04:20:37.655Z,101232.69
2018-12-04T04:23:06.494Z,101233.95
2018-12-04T04:25:35.290Z,101246.55
2018-12-04T04:28:04.153Z,101252.19
2018-12-04T04:30:32.995Z,101253.98
2018-12-04T04:33:01.790Z,101258.38
2018-12-04T04:35:30.588Z,101263.18
2018-12-04T04:37:59.385Z,101267.04
2018-12-04T04:40:28.174Z,101280.01
2018-12-04T04:42:56.980Z,101289.12
2018-12-04T04:45:25.905Z,101288.86
2018-12-04T04:47:54.693Z,101293.73
2018-12-04T04:50:23.500Z,101296.91
2018-12-04T04:52:52.298Z,101291.88
2018-12-04T04:55:21.155Z,101295.09
2018-12-04T04:57:49.939Z,101291.34
2018-12-04T05:00:18.752Z,101297.13
2018-12-04T05:02:47.663Z,101311.90
2018-12-04T05:05:16.475Z,101320.59
2018-12-04T05:07:45.628Z,101317.25
2018-12-04T05:10:15.199Z,101316.95
2018-12-04T05:12:43.965Z,101320.53
2018-12-04T05:15:12.800Z,101318.60
2018-12-04T05:17:42.399Z,101327.44
2018-12-04T05:20:11.211Z,101329.36
2018-12-04T05:22:40.072Z,101343.75
2018-12-04T05:25:08.880Z,101346.80
2018-12-04T05:27:37.752Z,101343.30
2018-12-04T05:30:07.412Z,101352.39
2018-12-04T05:32:36.270Z,101360.95
2018-12-04T05:35:05.061Z,101357.84
2018-12-04T05:37:33.928Z,101372.33
2018-12-04T05:40:02.748Z,101380.63
2018-12-04T05:42:31.560Z,101388.84
2018-12-04T05:45:00.420Z,101395.11
2018-12-04T05:47:29.211Z,101399.96
2018-12-04T05:49:58.057Z,101400.18
2018-12-04T05:52:26.888Z,101418.03
2018-12-04T05:54:55.712Z,101423.53
2018-12-04T05:57:24.548Z,101423.79
2018-12-04T05:59:53.357Z,101437.37
2018-12-04T06:02:22.211Z,101437.00
2018-12-04T06:04:51.023Z,101443.45
2018-12-04T06:07:19.836Z,101450.84
2018-12-04T06:09:48.706Z,101456.91
2018-12-04T06:12:17.504Z,101461.95
2018-12-04T06:14:46.328Z,101472.98
2018-12-04T06:17:15.132Z,101475.64
2018-12-04T06:19:44.034Z,101482.03
2018-12-04T06:22:12.831Z,101484.90
2018-12-04T06:24:41.646Z,101493.10
2018-12-04T06:27:10.501Z,101502.67
2018-12-04T06:29:39.328Z,101511.37
2018-12-04T06:32:08.495Z,101516.06
2018-12-04T06:34:37.339Z,101522.72
2018-12-04T06:37:06.168Z,101524.25
2018-12-04T06:39:34.972Z,101528.61
2018-12-04T06:42:03.828Z,101532.86
2018-12-04T06:44:32.752Z,101534.02
2018-12-04T06:47:01.527Z,101536.91
2018-12-04T06:49:30.353Z,101547.22
2018-12-04T06:51:59.147Z,101555.75
2018-12-04T06:54:27.982Z,101556.70
2018-12-04T06:56:57.786Z,101568.16
2018-12-04T06:59:26.712Z,101573.09
2018-12-04T07:01:55.587Z,101581.83
2018-12-04T07:04:24.433Z,101586.21
2018-12-04T07:06:53.245Z,101594.45
2018-12-04T07:09:22.073Z,101591.72
2018-12-04T07:11:50.881Z,101603.53
2018-12-04T07:14:19.711Z,101624.16
2018-12-04T07:16:48.542Z,101627.92
2018-12-04T07:19:17.361Z,101627.88
2018-12-04T07:21:46.200Z,101629.98
2018-12-04T07:24:15.530Z,101632.09
2018-12-04T07:26:44.416Z,101639.51
2018-12-04T07:29:14.042Z,101648.73
2018-12-04T07:31:43.166Z,101665.62
2018-12-04T07:34:13.059Z,101672.05
2018-12-04T07:36:42.396Z,101676.80
2018-12-04T07:39:11.238Z,101688.27
2018-12-04T07:41:40.125Z,101684.52
2018-12-04T07:44:09.619Z,101688.70
2018-12-04T07:46:38.805Z,101689.84
2018-12-04T07:49:07.627Z,101686.61
2018-12-04T07:51:36.575Z,101692.03
2018-12-04T07:54:06.413Z,101698.21
2018-12-04T07:56:36.688Z,101696.18
2018-12-04T07:59:05.577Z,101701.07
2018-12-04T08:01:34.470Z,101703.80
2018-12-04T08:04:03.377Z,101705.75
2018-12-04T08:06:32.853Z,101712.84
2018-12-04T08:09:03.053Z,101716.48
2018-12-04T08:11:31.987Z,101718.97
2018-12-04T08:14:01.251Z,101724.94
2018-12-04T08:16:31.176Z,101735.13
2018-12-04T08:18:59.939Z,101736.33
2018-12-04T08:21:29.441Z,101742.67
2018-12-04T08:23:59.664Z,101749.02
2018-12-04T08:26:28.562Z,101752.08
2018-12-04T08:28:57.439Z,101761.08
2018-12-04T08:31:26.510Z,101770.98
2018-12-04T08:33:55.313Z,101777.57
2018-12-04T08:36:24.120Z,101781.55
2018-12-04T08:38:52.944Z,101785.03
2018-12-04T08:41:21.815Z,101786.61
2018-12-04T08:43:50.624Z,101787.89
2018-12-04T08:46:19.424Z,101793.33
2018-12-04T08:48:48.262Z,101797.52
2018-12-04T08:51:17.099Z,101795.73
2018-12-04T08:53:45.940Z,101811.23
2018-12-04T08:56:15.773Z,101818.49
2018-12-04T08:58:44.649Z,101827.54
2018-12-04T09:01:13.490Z,101825.05
2018-12-04T09:03:44.245Z,101835.00
2018-12-04T09:06:13.468Z,101843.12
2018-12-04T09:08:42.372Z,101847.18
2018-12-04T09:11:11.149Z,101853.98
2018-12-04T09:13:41.592Z,101863.47
2018-12-04T09:16:10.443Z,101874.13
2018-12-04T09:18:39.867Z,101875.36
2018-12-04T09:21:08.684Z,101875.34
2018-12-04T09:23:37.501Z,101882.25
2018-12-04T09:26:06.334Z,101888.41
2018-12-04T09:28:35.161Z,101899.98
2018-12-04T09:31:03.992Z,101912.70
2018-12-04T09:33:32.823Z,101921.17
2018-12-04T09:36:01.633Z,101929.41
2018-12-04T09:38:30.479Z,101938.03
2018-12-04T09:40:59.312Z,101946.88
2018-12-04T09:43:28.156Z,101948.98
2018-12-04T09:45:56.973Z,101944.17
2018-12-04T09:48:25.780Z,101946.62
2018-12-04T09:50:54.612Z,101958.13
2018-12-04T09:53:25.303Z,101961.61
2018-12-04T09:55:52.257Z,101958.33
2018-12-04T09:58:21.074Z,101952.28
2018-12-04T10:00:49.880Z,101959.10
2018-12-04T10:03:18.683Z,101961.97
2018-12-04T10:05:47.494Z,101967.03
2018-12-04T10:08:16.332Z,101971.04
2018-12-04T10:10:45.203Z,101982.56
2018-12-04T10:13:14.955Z,101983.57
2018-12-04T10:15:43.791Z,101991.88
2018-12-04T10:18:12.597Z,101995.84
2018-12-04T10:20:41.405Z,101994.69
2018-12-04T10:23:10.248Z,101997.53
2018-12-04T10:25:43.779Z,102000.78
2018-12-04T10:28:12.679Z,102001.57
2018-12-04T10:30:41.601Z,102006.48
2018-12-04T10:33:10.526Z,102004.28
2018-12-04T10:35:39.318Z,102006.87
2018-12-04T10:38:09.250Z,102001.05
2018-12-04T10:40:38.054Z,102006.34
2018-12-04T10:43:06.886Z,102003.08
2018-12-04T10:45:35.731Z,102009.00
2018-12-04T10:48:04.578Z,102006.52
2018-12-04T10:50:33.394Z,102001.92
2018-12-04T10:53:02.200Z,102002.89
2018-12-04T10:55:31.011Z,102006.71
2018-12-04T10:57:59.883Z,102010.55
2018-12-04T11:00:34.127Z,101994.40
2018-12-04T11:03:08.272Z,102012.23
2018-12-04T11:05:37.147Z,102017.89
2018-12-04T11:08:05.932Z,102030.25
2018-12-04T11:10:34.825Z,102035.70
2018-12-04T11:13:03.723Z,102034.55
2018-12-04T11:15:32.531Z,102037.22
2018-12-04T11:18:01.360Z,102044.98
2018-12-04T11:20:30.253Z,102047.09
2018-12-04T11:22:59.047Z,102039.24
2018-12-04T11:25:27.975Z,102048.43
2018-12-04T11:27:56.773Z,102047.78
2018-12-04T11:30:25.599Z,102053.48
2018-12-04T11:32:54.384Z,102057.39
2018-12-04T11:35:23.975Z,102061.34
2018-12-04T11:37:52.804Z,102054.64
2018-12-04T11:40:21.660Z,102059.54
2018-12-04T11:42:50.484Z,102064.64
2018-12-04T11:45:19.286Z,102073.52
2018-12-04T11:47:48.085Z,102075.21
2018-12-04T11:50:16.961Z,102068.86
2018-12-04T11:52:45.755Z,102074.53
2018-12-04T11:55:14.557Z,102067.44
2018-12-04T11:57:43.487Z,102075.41
2018-12-04T12:00:18.270Z,102073.89
2018-12-04T12:02:47.119Z,102072.55
2018-12-04T12:05:15.946Z,102075.97
2018-12-04T12:07:44.800Z,102077.45
2018-12-04T12:10:13.920Z,102080.95
2018-12-04T12:12:43.312Z,102083.24
2018-12-04T12:15:17.930Z,102088.75
2018-12-04T12:17:44.032Z,102084.02
2018-12-04T12:20:13.496Z,102091.66
2018-12-04T12:22:42.348Z,102090.56
2018-12-04T12:25:11.885Z,102091.85
2018-12-04T12:27:41.834Z,102094.16
2018-12-04T12:30:10.948Z,102101.05
2018-12-04T12:32:39.774Z,102100.53
2018-12-04T12:35:08.634Z,102104.34
2018-12-04T12:37:37.431Z,102107.05
2018-12-04T12:40:08.062Z,102106.32
2018-12-04T12:42:36.867Z,102106.22
2018-12-04T12:45:08.951Z,102114.72
2018-12-04T12:47:37.739Z,102114.37
2018-12-04T12:50:09.390Z,102117.31
2018-12-04T12:52:38.200Z,102118.20
2018-12-04T12:55:07.071Z,102110.27
2018-12-04T12:57:35.928Z,102121.41
2018-12-04T13:00:06.247Z,102129.13
2018-12-04T13:02:35.060Z,102127.12
2018-12-04T13:05:03.896Z,102129.95
2018-12-04T13:07:32.738Z,102145.89
2018-12-04T13:10:01.560Z,102146.52
2018-12-04T13:12:30.405Z,102150.48
2018-12-04T13:14:59.215Z,102145.13
2018-12-04T13:17:28.951Z,102161.34
2018-12-04T13:19:57.785Z,102164.45
2018-12-04T13:22:26.592Z,102168.91
2018-12-04T13:24:55.481Z,102169.17
2018-12-04T13:27:24.286Z,102168.20
2018-12-04T13:29:53.096Z,102177.92
2018-12-04T13:32:21.912Z,102173.37
2018-12-04T13:34:50.746Z,102178.97
2018-12-04T13:37:20.138Z,102180.66
2018-12-04T13:39:48.965Z,102186.47
2018-12-04T13:42:17.839Z,102185.63
2018-12-04T13:44:46.672Z,102190.76
2018-12-04T13:47:15.500Z,102194.71
2018-12-04T13:49:45.764Z,102199.92
2018-12-04T13:52:15.341Z,102199.97
2018-12-04T13:54:49.420Z,102204.64
2018-12-04T13:57:19.623Z,102207.78
2018-12-04T13:59:48.870Z,102209.86
2018-12-04T14:02:17.691Z,102209.15
2018-12-04T14:04:46.574Z,102213.06
2018-12-04T14:07:15.417Z,102212.87
2018-12-04T14:09:44.374Z,102217.58
2018-12-04T14:12:13.404Z,102218.78
2018-12-04T14:14:42.782Z,102220.39
2018-12-04T14:17:13.210Z,102220.80
2018-12-04T14:19:42.054Z,102212.14
2018-12-04T14:22:10.941Z,102215.52
2018-12-04T14:24:39.796Z,102223.45
2018-12-04T14:27:08.623Z,102220.34
2018-12-04T14:29:38.736Z,102229.55
2018-12-04T14:32:07.636Z,102236.68
2018-12-04T14:34:36.516Z,102244.03
2018-12-04T14:37:05.963Z,102243.59
2018-12-04T14:39:36.156Z,102241.52
2018-12-04T14:42:04.992Z,102248.23
2018-12-04T14:44:33.787Z,102245.51
2018-12-04T14:47:02.576Z,102253.89
2018-12-04T14:49:32.417Z,102258.01
2018-12-04T14:52:01.237Z,102261.97
2018-12-04T14:54:30.025Z,102265.44
2018-12-04T14:56:58.815Z,102265.02
2018-12-04T14:59:27.635Z,102267.13
2018-12-04T15:01:56.432Z,102264.27
2018-12-04T15:04:25.277Z,102270.80
2018-12-04T15:06:54.112Z,102272.95
2018-12-04T15:09:23.969Z,102281.67
2018-12-04T15:11:52.814Z,102286.55
2018-12-04T15:14:21.632Z,102289.19
2018-12-04T15:16:55.023Z,102298.27
2018-12-04T15:19:19.959Z,102303.89
2018-12-04T15:21:48.708Z,102306.14
2018-12-04T15:24:17.618Z,102307.12
2018-12-04T15:26:52.088Z,102309.36
2018-12-04T15:29:22.602Z,102317.88
2018-12-04T15:31:52.571Z,102315.33
2018-12-04T15:34:21.371Z,102322.21
2018-12-04T15:36:56.223Z,102320.56
2018-12-04T15:39:18.999Z,102325.61
2018-12-04T15:41:48.702Z,102328.20
2018-12-04T15:44:18.702Z,102332.36
2018-12-04T15:46:47.556Z,102334.48
2018-12-04T15:49:16.311Z,102338.22
2018-12-04T15:51:45.503Z,102340.41
2018-12-04T15:54:15.454Z,102333.62
2018-12-04T15:56:44.297Z,102337.77
2018-12-04T15:59:13.127Z,102343.25
2018-12-04T16:01:41.955Z,102348.31
2018-12-04T16:04:10.811Z,102346.59
2018-12-04T16:06:39.654Z,102354.84
2018-12-04T16:09:10.120Z,102355.19
2018-12-04T16:11:39.622Z,102365.05
2018-12-04T16:14:08.423Z,102364.04
2018-12-04T16:16:37.253Z,102375.56
2018-12-04T16:19:06.106Z,102374.95
2018-12-04T16:21:34.924Z,102377.80
2018-12-04T16:24:03.797Z,102382.47
2018-12-04T16:26:32.625Z,102382.40
2018-12-04T16:29:01.782Z,102382.90
2018-12-04T16:31:31.407Z,102383.39
2018-12-04T16:34:00.948Z,102383.83
2018-12-04T16:36:29.739Z,102380.80
2018-12-04T16:38:58.526Z,102376.70
2018-12-04T16:41:27.327Z,102378.18
2018-12-04T16:43:56.132Z,102381.73
2018-12-04T16:46:24.968Z,102384.42
2018-12-04T16:48:53.856Z,102385.99
2018-12-04T16:51:23.440Z,102393.36
2018-12-04T16:53:52.758Z,102383.91
2018-12-04T16:56:22.387Z,102385.56
2018-12-04T16:58:51.792Z,102388.36
2018-12-04T17:01:20.661Z,102384.70
2018-12-04T17:03:49.484Z,102385.44
2018-12-04T17:06:18.885Z,102383.09
2018-12-04T17:08:48.445Z,102386.64
2018-12-04T17:11:17.282Z,102389.81
2018-12-04T17:13:46.621Z,102393.86
2018-12-04T17:16:17.963Z,102397.17
2018-12-04T17:18:48.955Z,102395.75
2018-12-04T17:21:17.946Z,102404.17
2018-12-04T17:23:47.858Z,102406.60
2018-12-04T17:26:19.480Z,102401.33
2018-12-04T17:28:50.338Z,102398.58
2018-12-04T17:31:21.863Z,102402.66
2018-12-04T17:33:50.880Z,102401.06
2018-12-04T17:36:21.360Z,102411.40
2018-12-04T17:38:50.675Z,102414.56
2018-12-04T17:41:19.635Z,102409.84
2018-12-04T17:43:48.544Z,102418.34
2018-12-04T17:46:17.352Z,102416.73
2018-12-04T17:48:46.768Z,102417.19
2018-12-04T17:51:15.841Z,102419.20
2018-12-04T17:53:45.828Z,102416.86
2018-12-04T17:56:14.681Z,102420.06
2018-12-04T17:58:43.539Z,102418.86
2018-12-04T18:01:13.484Z,102413.77
2018-12-04T18:03:42.350Z,102422.06
2018-12-04T18:06:11.204Z,102420.45
2018-12-04T18:08:40.046Z,102420.86
2018-12-04T18:11:08.947Z,102424.53
2018-12-04T18:13:37.791Z,102423.83
2018-12-04T18:16:06.619Z,102424.42
2018-12-04T18:18:39.959Z,102427.02
2018-12-04T18:21:09.057Z,102428.93
2018-12-04T18:23:38.119Z,102435.06
2018-12-04T18:26:06.900Z,102433.33
2018-12-04T18:28:35.691Z,102434.87
2018-12-04T18:31:04.491Z,102440.03
2018-12-04T18:33:33.319Z,102434.38
2018-12-04T18:36:02.106Z,102436.62
2018-12-04T18:38:30.990Z,102443.44
2018-12-04T18:40:59.811Z,102450.44
2018-12-04T18:43:28.607Z,102446.25
2018-12-04T18:45:57.394Z,102463.69
2018-12-04T18:48:26.359Z,102456.02
2018-12-04T18:50:55.197Z,102453.33
2018-12-04T18:53:24.017Z,102458.49
2018-12-04T18:55:52.808Z,102460.69
2018-12-04T18:58:21.653Z,102458.70
2018-12-04T19:00:50.570Z,102456.71
2018-12-04T19:03:19.315Z,102450.87
2018-12-04T19:05:48.159Z,102446.50
2018-12-04T19:08:16.984Z,102454.20
2018-12-04T19:10:45.790Z,102456.06
2018-12-04T19:13:14.640Z,102469.25
2018-12-04T19:15:43.515Z,102473.46
2018-12-04T19:18:12.308Z,102474.19
2018-12-04T19:20:41.191Z,102472.56
2018-12-04T19:23:10.151Z,102477.72
2018-12-04T19:25:39.016Z,102486.55
2018-12-04T19:28:07.874Z,102482.51
2018-12-04T19:30:36.699Z,102484.00
2018-12-04T19:33:05.527Z,102483.47
2018-12-04T19:35:34.320Z,102489.17
2018-12-04T19:38:03.134Z,102486.42
2018-12-04T19:40:32.017Z,102488.64
2018-12-04T19:43:00.875Z,102476.39
2018-12-04T19:45:29.706Z,102477.30
2018-12-04T19:47:58.616Z,102470.54
2018-12-04T19:50:27.410Z,102474.59
2018-12-04T19:52:56.208Z,102477.73
2018-12-04T19:55:25.020Z,102479.55
2018-12-04T19:57:53.918Z,102485.08
2018-12-04T20:00:22.698Z,102495.14
2018-12-04T20:02:51.519Z,102503.91
2018-12-04T20:05:20.325Z,102501.37
2018-12-04T20:07:49.139Z,102511.26
2018-12-04T20:10:17.911Z,102515.47
2018-12-04T20:12:46.721Z,102516.75
2018-12-04T20:15:15.532Z,102519.71
2018-12-04T20:17:44.638Z,102517.31
2018-12-04T20:20:13.517Z,102524.64
2018-12-04T20:22:42.386Z,102526.48
2018-12-04T20:25:11.171Z,102527.20
2018-12-04T20:27:39.985Z,102529.58
2018-12-04T20:30:08.851Z,102528.50
2018-12-04T20:32:37.884Z,102537.84
2018-12-04T20:35:06.688Z,102535.48
2018-12-04T20:37:35.484Z,102535.28
2018-12-04T20:40:04.610Z,102536.20
2018-12-04T20:42:33.429Z,102536.02
2018-12-04T20:45:02.236Z,102539.14
2018-12-04T20:47:31.685Z,102541.34
2018-12-04T20:50:00.525Z,102539.34
2018-12-04T20:52:30.586Z,102547.39
2018-12-04T20:54:59.407Z,102542.84
2018-12-04T20:57:28.207Z,102541.36
2018-12-04T20:59:58.912Z,102534.59
2018-12-04T21:02:28.742Z,102538.24
2018-12-04T21:04:57.555Z,102534.24
2018-12-04T21:07:26.595Z,102537.72
2018-12-04T21:09:55.424Z,102538.61
2018-12-04T21:12:29.393Z,102531.68
2018-12-04T21:14:58.207Z,102534.61
2018-12-04T21:17:27.033Z,102542.46
2018-12-04T21:19:55.884Z,102551.42
2018-12-04T21:22:26.409Z,102554.91
2018-12-04T21:24:55.960Z,102552.55
2018-12-04T21:27:31.066Z,102558.95
2018-12-04T21:30:05.200Z,102560.05
2018-12-04T21:32:40.712Z,102556.56
2018-12-04T21:35:14.716Z,102554.00
2018-12-04T21:37:48.943Z,102564.64
2018-12-04T21:40:22.977Z,102562.97
2018-12-04T21:42:57.048Z,102551.07
2018-12-04T21:45:31.160Z,102547.78
2018-12-04T21:48:04.422Z,102551.83
2018-12-04T21:50:33.229Z,102544.50
2018-12-04T21:53:02.084Z,102544.66
2018-12-04T21:55:30.883Z,102545.94
2018-12-04T21:57:59.697Z,102542.66
2018-12-04T22:00:28.535Z,102540.81
2018-12-04T22:02:58.418Z,102542.66
2018-12-04T22:05:27.239Z,102548.34
2018-12-04T22:07:56.132Z,102540.28
2018-12-04T22:10:24.919Z,102543.73
2018-12-04T22:12:53.723Z,102543.92
2018-12-04T22:15:23.005Z,102549.05
2018-12-04T22:17:51.817Z,102551.05
2018-12-04T22:20:20.637Z,102553.97
2018-12-04T22:22:49.471Z,102553.45
2018-12-04T22:25:18.273Z,102551.25
2018-12-04T22:27:47.137Z,102545.77
2018-12-04T22:30:16.015Z,102553.62
2018-12-04T22:32:44.844Z,102558.59
2018-12-04T22:35:13.686Z,102557.69
2018-12-04T22:37:42.529Z,102557.33
2018-12-04T22:40:11.383Z,102551.86
2018-12-04T22:42:40.197Z,102552.22
2018-12-04T22:45:14.229Z,102550.39
2018-12-04T22:47:43.049Z,102548.75
2018-12-04T22:50:11.879Z,102548.19
2018-12-04T22:52:40.775Z,102549.84
2018-12-04T22:55:10.581Z,102559.56
2018-12-04T22:57:39.392Z,102559.73
2018-12-04T23:00:14.704Z,102563.41
2018-12-04T23:02:43.583Z,102561.38
2018-12-04T23:05:13.436Z,102561.77
2018-12-04T23:07:42.362Z,102554.45
2018-12-04T23:10:11.810Z,102560.09
2018-12-04T23:12:40.607Z,102552.97
2018-12-04T23:15:09.442Z,102553.89
2018-12-04T23:17:38.256Z,102547.48
2018-12-04T23:20:08.166Z,102547.67
2018-12-04T23:22:37.190Z,102550.95
2018-12-04T23:25:06.030Z,102549.67
2018-12-04T23:27:34.871Z,102544.19
2018-12-04T23:30:03.737Z,102547.83
2018-12-04T23:32:32.583Z,102546.90
2018-12-04T23:35:01.413Z,102548.37
2018-12-04T23:37:31.045Z,102543.41
2018-12-04T23:39:59.904Z,102535.20
2018-12-04T23:42:28.727Z,102535.19
2018-12-04T23:44:57.544Z,102534.98
2018-12-04T23:47:27.016Z,102533.90
2018-12-04T23:49:55.879Z,102531.69
2018-12-04T23:52:24.709Z,102537.17
2018-12-04T23:54:53.629Z,102541.58
2018-12-04T23:57:22.484Z,102538.11
2018-12-04T23:59:51.279Z,102537.55
